Hauptseite
METAR-TAF:

METAR-TAF

Flughäfen :

Juigalpa, Nicaragua

Breite: 12-06N, Länge: 085-22W, Höhe: 90 m

Beobachtung

Neuester Wetterbericht von vor 4 Stunden und 4 Minuten, um 23:00 UTC
Wind 6 kt aus Südwest
Temperatur 29°C
Luftfeuchtigkeit 84%
Luftdruck 1008 hPa
Sichtweite 10 km oder mehr
Durchbrochene Bewölkung in der Höhe von 2000 ft, Towering cumulus.

METAR: MNJU 172300Z 23006KT 9999 BKN020TCU 29/26 Q1008 TCU/4/C

Zeit: 21:04 (03:04 UTC)


TAF: fehlend

Wetterbeobachtungen und Prognosen von mehr als 4000 Flughäfen (METAR und TAF Bericht).

Die verfügbaren Stationen werden durch gelbe und rote Markierungen auf der Karte dargestellt.

Führen Sie die Maus auf sie, um den Namen der Station zu sehen.

Darauf klicken, um die Beobachtung von Wetterbeobachtungen und Prognosen zu sehen.

Um die Karte zu ändern : klicken Sie auf den grünen Tasten mit einem schwarzen Kreuz Zum Vergrößern, auf den grünen Button mit einem Gedankenstrich zu verkleinern, oder auf die grünen Pfeile für benachbarte Karten.


METAR-TAF: